Time;durP1;ratioP1;P1;durP2;ratioP2;P2;SDS_P1;SDS_P2;PMS_P1;PMS_P2;Temp;Humidity;BMP_temperature;BMP_pressure;BME280_temperature;BME280_humidity;BME280_pressure;Samples;Min_cycle;Max_cycle;Signal;HPM_P1;HPM_P2
2021/04/18 00:04:21;;;;;;;9.93;4.90;;;8.40;99.90;;;;;;6665899;89;20190;-76
2021/04/18 00:14:24;;;;;;;9.48;5.18;;;8.30;99.90;;;;;;6665831;89;20713;-76
2021/04/18 00:24:25;;;;;;;10.15;4.62;;;8.00;99.90;;;;;;6666416;89;20264;-76
2021/04/18 00:34:25;;;;;;;13.45;5.30;;;7.80;99.90;;;;;;6665345;88;20204;-76
2021/04/18 00:44:26;;;;;;;12.85;5.00;;;7.60;99.90;;;;;;6666191;88;20295;-76
2021/04/18 00:54:27;;;;;;;13.75;4.70;;;7.40;99.90;;;;;;6680049;88;20636;-76
2021/04/18 01:04:28;;;;;;;13.18;4.55;;;7.10;99.90;;;;;;6665489;89;20846;-75
2021/04/18 01:14:28;;;;;;;6.43;3.58;;;6.90;99.90;;;;;;6680418;88;20353;-77
2021/04/18 01:24:29;;;;;;;8.53;4.00;;;6.70;99.90;;;;;;6680321;88;20254;-75
2021/04/18 01:34:31;;;;;;;7.07;3.72;;;6.70;99.90;;;;;;6665676;88;21095;-76
2021/04/18 01:44:31;;;;;;;6.80;3.30;;;7.20;99.90;;;;;;6665536;89;20613;-76
2021/04/18 01:54:32;;;;;;;8.57;3.57;;;7.20;99.90;;;;;;6662698;88;20209;-76
2021/04/18 02:04:33;;;;;;;7.00;3.67;;;7.40;99.90;;;;;;6647819;89;20609;-75
2021/04/18 02:14:34;;;;;;;10.00;3.90;;;7.60;99.90;;;;;;6647592;89;20254;-75
2021/04/18 02:24:35;;;;;;;9.40;3.65;;;7.60;99.90;;;;;;6648826;89;21079;-76
2021/04/18 02:34:35;;;;;;;8.52;3.22;;;7.50;99.90;;;;;;6718573;88;20358;-76
2021/04/18 02:44:36;;;;;;;7.15;3.08;;;7.30;99.90;;;;;;6745367;88;20324;-75
2021/04/18 02:54:37;;;;;;;6.43;2.90;;;7.40;99.90;;;;;;6739009;88;20177;-76
2021/04/18 03:04:37;;;;;;;9.98;3.17;;;7.30;99.90;;;;;;6748525;88;20237;-75
2021/04/18 03:14:38;;;;;;;7.32;3.05;;;7.30;99.90;;;;;;6743392;88;20202;-75
2021/04/18 03:24:39;;;;;;;10.25;3.30;;;7.40;99.90;;;;;;6749150;87;20301;-75
2021/04/18 03:34:39;;;;;;;8.67;3.23;;;7.30;99.90;;;;;;6753997;88;20215;-75
2021/04/18 03:44:40;;;;;;;7.85;3.15;;;7.30;99.90;;;;;;6738756;88;20525;-75
2021/04/18 03:54:40;;;;;;;9.90;3.40;;;7.10;99.90;;;;;;6742078;88;20192;-76
2021/04/18 04:04:41;;;;;;;7.87;3.72;;;7.10;99.90;;;;;;6743244;88;20213;-75
2021/04/18 04:14:42;;;;;;;8.77;3.40;;;7.20;99.90;;;;;;6751346;87;20204;-76
2021/04/18 04:24:42;;;;;;;11.45;3.70;;;7.10;99.90;;;;;;6756953;87;20204;-76
2021/04/18 04:34:43;;;;;;;10.63;3.55;;;7.40;99.90;;;;;;6750042;87;20211;-76
2021/04/18 04:44:43;;;;;;;10.75;3.80;;;7.20;99.90;;;;;;6746265;87;20261;-77
2021/04/18 04:54:44;;;;;;;11.35;4.20;;;7.10;99.90;;;;;;6744780;87;20257;-76
2021/04/18 05:04:44;;;;;;;8.00;4.55;;;7.00;99.90;;;;;;6749020;88;20606;-77
2021/04/18 05:14:46;;;;;;;8.90;4.15;;;7.10;99.90;;;;;;6749971;87;20330;-75
2021/04/18 05:24:46;;;;;;;9.40;4.03;;;6.90;99.90;;;;;;6752572;87;20324;-76
2021/04/18 05:34:50;;;;;;;8.05;3.90;;;7.00;99.90;;;;;;6748384;88;20216;-76
2021/04/18 05:44:51;;;;;;;12.48;4.40;;;7.20;99.90;;;;;;6747933;88;20640;-77
2021/04/18 05:54:52;;;;;;;7.70;3.62;;;7.40;99.90;;;;;;6745282;88;20246;-76
2021/04/18 06:04:53;;;;;;;10.20;4.45;;;7.30;99.90;;;;;;6738605;88;20617;-76
2021/04/18 06:14:53;;;;;;;10.30;4.28;;;7.40;99.90;;;;;;6739607;88;20192;-76
2021/04/18 06:24:54;;;;;;;8.73;4.03;;;7.40;99.90;;;;;;6749392;87;20184;-76
2021/04/18 06:34:54;;;;;;;7.53;4.20;;;7.40;99.90;;;;;;6748689;88;20498;-77
2021/04/18 06:44:55;;;;;;;9.02;4.28;;;7.30;99.90;;;;;;6754544;87;20505;-77
2021/04/18 06:54:56;;;;;;;13.23;4.45;;;7.40;99.90;;;;;;6756855;87;20502;-76
2021/04/18 07:05:00;;;;;;;11.77;4.40;;;7.80;99.90;;;;;;6759807;88;20254;-76
2021/04/18 07:15:02;;;;;;;10.27;4.15;;;7.90;99.90;;;;;;6744075;88;20272;-77
2021/04/18 07:25:04;;;;;;;11.50;4.82;;;7.80;99.90;;;;;;6753536;88;20202;-75
2021/04/18 07:35:05;;;;;;;9.63;4.32;;;7.50;99.90;;;;;;6747039;88;20215;-76
2021/04/18 07:45:07;;;;;;;12.65;5.30;;;7.40;99.90;;;;;;6748078;88;20177;-77
2021/04/18 07:55:10;;;;;;;12.27;5.00;;;7.40;99.90;;;;;;6754872;88;20196;-77
2021/04/18 08:05:12;;;;;;;12.13;5.10;;;7.90;99.90;;;;;;6747228;87;20310;-76
2021/04/18 08:15:13;;;;;;;11.95;5.28;;;8.20;99.90;;;;;;6750402;87;20216;-76
2021/04/18 08:25:14;;;;;;;9.93;4.90;;;8.40;99.90;;;;;;6750981;87;20199;-76
2021/04/18 08:35:29;;;;;;;13.73;6.60;;;8.70;99.90;;;;;;6755063;87;20664;-76
2021/04/18 08:45:46;;;;;;;11.20;5.65;;;9.30;99.90;;;;;;6753952;88;20192;-75
2021/04/18 08:56:01;;;;;;;12.82;5.87;;;9.20;99.90;;;;;;6752174;87;20219;-77
2021/04/18 09:06:19;;;;;;;13.07;6.25;;;9.40;99.90;;;;;;6742326;88;20197;-75
2021/04/18 09:16:27;;;;;;;17.15;7.75;;;9.70;99.90;;;;;;6746070;88;20192;-76
2021/04/18 09:26:28;;;;;;;16.85;8.32;;;10.50;99.90;;;;;;6746454;87;20573;-76
2021/04/18 09:36:29;;;;;;;16.33;7.97;;;11.30;99.90;;;;;;6744946;88;20231;-76
2021/04/18 09:46:40;;;;;;;14.23;7.75;;;12.20;99.90;;;;;;6743507;87;20795;-76
2021/04/18 09:56:41;;;;;;;15.52;7.20;;;12.40;99.90;;;;;;6744431;87;20208;-76
2021/04/18 10:06:46;;;;;;;17.48;8.10;;;12.50;99.90;;;;;;6738763;87;20215;-76
2021/04/18 10:16:46;;;;;;;15.15;7.93;;;12.90;99.90;;;;;;6744896;87;20211;-77
2021/04/18 10:26:47;;;;;;;12.93;7.07;;;13.60;99.90;;;;;;6744743;88;20200;-76
2021/04/18 10:36:47;;;;;;;14.63;7.57;;;13.80;99.90;;;;;;6742182;87;20213;-77
2021/04/18 10:46:53;;;;;;;13.18;7.22;;;14.00;99.90;;;;;;6745437;87;20192;-77
2021/04/18 10:56:54;;;;;;;11.63;7.35;;;14.30;99.90;;;;;;6758537;87;20197;-77
2021/04/18 11:06:55;;;;;;;17.73;9.30;;;13.50;99.90;;;;;;6754274;87;20180;-76
2021/04/18 11:16:55;;;;;;;16.30;9.30;;;11.80;99.90;;;;;;6754250;87;20258;-78
2021/04/18 11:26:56;;;;;;;19.00;9.63;;;10.80;99.90;;;;;;6749194;87;20938;-76
2021/04/18 11:36:57;;;;;;;20.77;9.70;;;10.70;99.90;;;;;;6745883;87;20209;-78
2021/04/18 11:46:57;;;;;;;16.48;8.82;;;10.70;99.90;;;;;;6751646;87;20892;-78
2021/04/18 11:56:58;;;;;;;18.17;8.57;;;10.60;99.90;;;;;;6752764;87;20724;-76
2021/04/18 12:06:59;;;;;;;17.45;9.05;;;11.10;99.90;;;;;;6752635;87;20192;-77
2021/04/18 12:17:00;;;;;;;15.15;8.30;;;11.60;99.90;;;;;;6749253;88;20216;-78
2021/04/18 12:27:01;;;;;;;15.23;8.70;;;12.10;99.90;;;;;;6757787;88;20240;-80
2021/04/18 12:37:02;;;;;;;19.55;8.75;;;12.50;99.90;;;;;;6761590;88;20200;-79
2021/04/18 12:47:02;;;;;;;17.37;9.17;;;12.40;99.90;;;;;;6748257;88;20797;-78
2021/04/18 12:57:04;;;;;;;16.58;9.00;;;12.70;99.90;;;;;;6770672;87;20226;-78
2021/04/18 13:07:04;;;;;;;16.95;8.77;;;13.30;99.90;;;;;;6735056;88;20666;-78
2021/04/18 13:17:05;;;;;;;16.08;9.02;;;14.00;99.90;;;;;;6732078;88;20340;-78
2021/04/18 13:27:06;;;;;;;16.48;8.60;;;13.60;99.90;;;;;;6734601;88;20212;-79
2021/04/18 13:37:07;;;;;;;15.40;8.50;;;13.30;99.90;;;;;;6754270;88;20177;-78
2021/04/18 13:47:07;;;;;;;15.07;7.78;;;13.30;99.90;;;;;;6756104;88;20446;-79
2021/04/18 13:57:08;;;;;;;18.43;8.40;;;13.20;99.90;;;;;;6756190;87;20195;-78
2021/04/18 14:07:09;;;;;;;13.27;7.05;;;13.80;99.90;;;;;;6755276;87;20212;-77
2021/04/18 14:17:10;;;;;;;13.32;7.22;;;13.70;99.90;;;;;;6753344;87;20529;-78
2021/04/18 14:27:10;;;;;;;11.27;6.70;;;14.10;99.90;;;;;;6751736;87;20216;-77
2021/04/18 14:37:13;;;;;;;13.05;7.62;;;14.70;99.90;;;;;;6753641;87;20200;-78
2021/04/18 14:47:13;;;;;;;12.98;7.60;;;14.90;99.90;;;;;;6755643;87;20323;-77
2021/04/18 14:57:14;;;;;;;17.02;8.23;;;15.00;99.90;;;;;;6750682;88;20227;-80
2021/04/18 15:07:14;;;;;;;13.20;7.93;;;15.00;99.90;;;;;;6762798;87;20209;-78
2021/04/18 15:17:15;;;;;;;15.70;8.00;;;15.30;99.90;;;;;;6763125;87;20209;-78
2021/04/18 15:27:16;;;;;;;13.82;8.02;;;14.90;99.90;;;;;;6760523;87;20206;-77
2021/04/18 15:37:17;;;;;;;12.48;7.43;;;15.20;99.90;;;;;;6753686;88;20221;-78
2021/04/18 15:47:18;;;;;;;13.45;7.43;;;16.00;99.20;;;;;;6765557;87;20271;-78
2021/04/18 15:57:18;;;;;;;12.33;8.27;;;16.10;97.70;;;;;;6746407;87;20213;-77
2021/04/18 16:17:22;;;;;;;14.13;9.77;;;15.70;98.00;;;;;;6739840;88;20331;-79
2021/04/18 16:27:23;;;;;;;15.05;9.80;;;16.10;97.50;;;;;;6743113;88;20238;-78
2021/04/18 16:37:24;;;;;;;15.45;9.15;;;16.20;97.80;;;;;;6740972;88;20188;-79
2021/04/18 16:47:24;;;;;;;17.70;9.47;;;16.10;97.90;;;;;;6744928;88;20177;-79
2021/04/18 16:57:25;;;;;;;18.57;9.63;;;15.60;98.00;;;;;;6755768;88;20660;-81
2021/04/18 17:07:25;;;;;;;17.08;9.98;;;15.70;98.50;;;;;;6740483;88;20579;-79
2021/04/18 17:17:26;;;;;;;17.42;9.98;;;15.50;98.70;;;;;;6755156;88;20213;-80
2021/04/18 17:27:29;;;;;;;18.58;9.88;;;14.90;99.90;;;;;;6750465;88;20192;-81
2021/04/18 17:37:30;;;;;;;16.77;9.95;;;14.40;99.90;;;;;;6735611;88;20191;-80
2021/04/18 17:47:31;;;;;;;18.52;10.65;;;14.10;99.90;;;;;;6735037;88;20218;-80
2021/04/18 17:57:31;;;;;;;17.83;9.88;;;13.70;99.90;;;;;;6735092;88;20271;-80
2021/04/18 18:07:32;;;;;;;16.48;9.73;;;13.60;99.90;;;;;;6752150;88;20224;-78
2021/04/18 18:17:33;;;;;;;17.00;9.82;;;13.50;99.90;;;;;;6738044;88;20794;-80
2021/04/18 18:27:34;;;;;;;17.95;9.98;;;13.40;99.90;;;;;;6750169;88;20251;-78
2021/04/18 18:37:35;;;;;;;15.98;9.65;;;13.20;99.90;;;;;;6745537;88;20343;-81
2021/04/18 18:47:36;;;;;;;14.73;8.85;;;13.00;99.90;;;;;;6757636;87;20178;-79
2021/04/18 18:57:37;;;;;;;15.25;8.63;;;12.80;99.90;;;;;;6744282;88;20193;-78
2021/04/18 19:07:38;;;;;;;15.35;8.95;;;12.60;99.90;;;;;;6741748;88;20200;-78
2021/04/18 19:17:39;;;;;;;18.02;10.35;;;12.40;99.90;;;;;;6740621;88;20208;-79
2021/04/18 19:27:40;;;;;;;17.33;8.93;;;12.20;99.90;;;;;;6746872;88;20746;-80
2021/04/18 19:37:42;;;;;;;15.27;8.07;;;11.90;99.90;;;;;;6745125;88;20287;-79
2021/04/18 19:47:43;;;;;;;15.18;8.32;;;11.80;99.90;;;;;;6728285;88;20649;-79
2021/04/18 19:57:43;;;;;;;13.73;7.97;;;11.50;99.90;;;;;;6728831;88;20206;-79
2021/04/18 20:07:44;;;;;;;15.93;7.70;;;11.40;99.90;;;;;;6730508;88;20238;-80
2021/04/18 20:17:45;;;;;;;13.10;7.18;;;11.30;99.90;;;;;;6726517;88;20703;-80
2021/04/18 20:27:45;;;;;;;15.50;7.00;;;11.30;99.90;;;;;;6731241;88;20201;-80
2021/04/18 20:37:46;;;;;;;13.35;6.85;;;11.30;99.90;;;;;;6729291;88;20651;-80
2021/04/18 20:47:46;;;;;;;12.45;6.55;;;11.20;99.90;;;;;;6725665;88;20740;-79
2021/04/18 20:57:47;;;;;;;13.77;6.97;;;11.30;99.90;;;;;;6731621;88;20178;-79
2021/04/18 21:07:47;;;;;;;12.95;6.62;;;11.30;99.90;;;;;;6744489;88;20219;-79
2021/04/18 21:17:48;;;;;;;13.65;6.50;;;11.20;99.90;;;;;;6700775;88;20631;-80
2021/04/18 21:27:49;;;;;;;10.70;6.60;;;11.30;99.90;;;;;;6713574;88;20221;-80
2021/04/18 21:37:49;;;;;;;14.50;7.00;;;11.30;99.90;;;;;;6724347;88;20538;-79
2021/04/18 21:47:50;;;;;;;10.77;6.53;;;11.40;99.90;;;;;;6724069;88;20210;-79
2021/04/18 21:57:51;;;;;;;10.63;6.18;;;11.30;99.90;;;;;;6726469;88;20205;-80
2021/04/18 22:17:54;;;;;;;11.80;6.45;;;11.30;99.90;;;;;;6675894;89;20527;-78
2021/04/18 22:27:55;;;;;;;12.37;7.40;;;11.30;99.90;;;;;;6675287;89;20631;-78
2021/04/18 22:37:56;;;;;;;12.43;7.40;;;11.20;99.90;;;;;;6675760;89;20211;-78
2021/04/18 22:47:56;;;;;;;14.23;7.20;;;10.90;99.90;;;;;;6672261;89;20265;-80
2021/04/18 22:57:57;;;;;;;16.40;9.18;;;10.90;99.90;;;;;;6676736;88;20646;-80
2021/04/18 23:07:57;;;;;;;18.02;9.43;;;10.90;99.90;;;;;;6676098;89;20208;-79
2021/04/18 23:17:58;;;;;;;19.65;9.60;;;10.90;99.90;;;;;;6677604;89;20234;-79
2021/04/18 23:27:58;;;;;;;15.87;9.10;;;10.70;99.90;;;;;;6679267;89;20206;-80
2021/04/18 23:37:59;;;;;;;16.70;8.95;;;10.60;99.90;;;;;;6678864;89;20535;-80
2021/04/18 23:47:59;;;;;;;16.50;9.10;;;10.70;99.90;;;;;;6678822;89;20194;-77
2021/04/18 23:58:00;;;;;;;17.42;9.55;;;10.60;99.90;;;;;;6677360;88;20199;-79
